Time;durP1;ratioP1;P1;durP2;ratioP2;P2;SDS_P1;SDS_P2;PMS_P1;PMS_P2;Temp;Humidity;BMP_temperature;BMP_pressure;BME280_temperature;BME280_humidity;BME280_pressure;Samples;Min_cycle;Max_cycle;Signal;HPM_P1;HPM_P2
2022/01/24 00:01:41;;;;;;;16.45;8.93;;;4.80;80.70;;;;;;5044467;28;20101;-81
2022/01/24 00:04:08;;;;;;;14.27;6.75;;;4.70;80.80;;;;;;5053055;28;20513;-81
2022/01/24 00:06:34;;;;;;;21.95;9.48;;;4.70;80.90;;;;;;5052087;28;20032;-82
2022/01/24 00:09:00;;;;;;;22.50;10.70;;;4.70;81.20;;;;;;5054827;28;20051;-81
2022/01/24 00:11:38;;;;;;;17.88;8.75;;;4.70;81.30;;;;;;5053217;28;20535;-81
2022/01/24 00:17:11;;;;;;;14.55;6.93;;;4.70;80.80;;;;;;5042175;28;20034;-79
2022/01/24 00:27:58;;;;;;;13.63;7.30;;;4.30;81.10;;;;;;5058510;28;20032;-81
2022/01/24 00:30:24;;;;;;;16.55;8.82;;;4.20;81.30;;;;;;5041168;28;20093;-81
2022/01/24 00:32:49;;;;;;;11.88;6.70;;;4.20;81.40;;;;;;5056631;28;20506;-81
2022/01/24 00:35:15;;;;;;;10.00;5.72;;;4.10;81.60;;;;;;5058540;28;20167;-81
2022/01/24 00:37:41;;;;;;;15.80;8.32;;;4.20;81.60;;;;;;5058441;28;20096;-81
2022/01/24 00:40:08;;;;;;;18.95;8.75;;;4.20;81.70;;;;;;5042116;28;20041;-81
2022/01/24 00:45:12;;;;;;;16.60;8.77;;;4.20;81.50;;;;;;5058185;28;20033;-81
2022/01/24 00:55:41;;;;;;;16.13;7.40;;;4.40;81.30;;;;;;5055686;28;20376;-82
2022/01/24 00:58:07;;;;;;;23.23;9.90;;;4.40;80.70;;;;;;5037843;28;20649;-81
2022/01/24 01:00:33;;;;;;;19.80;10.13;;;4.30;80.70;;;;;;5054095;28;20135;-82
2022/01/24 01:02:58;;;;;;;21.92;9.27;;;4.30;80.90;;;;;;5057708;28;20029;-82
2022/01/24 01:08:00;;;;;;;18.40;8.18;;;4.40;80.90;;;;;;5038093;28;20128;-82
2022/01/24 01:18:39;;;;;;;24.98;10.70;;;4.60;80.00;;;;;;5038013;28;20044;-81
2022/01/24 01:21:10;;;;;;;17.17;7.85;;;4.70;79.90;;;;;;5052843;28;20032;-81
2022/01/24 01:23:39;;;;;;;22.98;10.77;;;4.60;79.90;;;;;;5057502;28;20039;-81
2022/01/24 01:26:10;;;;;;;15.48;7.68;;;4.60;80.10;;;;;;5054168;28;20079;-81
2022/01/24 01:28:39;;;;;;;18.20;8.45;;;4.60;80.00;;;;;;5037509;28;20031;-81
2022/01/24 01:31:11;;;;;;;20.02;10.25;;;4.60;80.00;;;;;;5037062;28;20022;-81
2022/01/24 01:33:55;;;;;;;20.13;11.77;;;4.70;80.00;;;;;;5036055;28;20021;-81
2022/01/24 01:53:24;;;;;;;23.80;9.95;;;4.60;79.60;;;;;;5046179;28;20040;-82
2022/01/24 01:55:49;;;;;;;22.48;9.82;;;4.60;79.40;;;;;;5063610;28;20037;-82
2022/01/24 01:58:18;;;;;;;23.08;10.35;;;4.60;79.70;;;;;;5036653;28;20061;-81
2022/01/24 02:00:47;;;;;;;21.93;10.47;;;4.50;79.40;;;;;;5054838;28;20026;-81
2022/01/24 02:03:13;;;;;;;25.27;11.23;;;4.60;79.50;;;;;;5038313;28;20033;-82
2022/01/24 02:05:40;;;;;;;20.00;10.80;;;4.50;79.50;;;;;;5036925;28;20040;-82
2022/01/24 02:08:06;;;;;;;22.25;10.25;;;4.40;79.50;;;;;;5036792;28;20056;-81
2022/01/24 02:10:34;;;;;;;27.42;11.57;;;4.40;79.70;;;;;;5037117;28;20040;-81
2022/01/24 02:13:00;;;;;;;22.70;10.43;;;4.30;79.40;;;;;;5055358;28;20048;-82
2022/01/24 02:18:16;;;;;;;22.52;10.50;;;4.20;79.40;;;;;;5036903;28;20489;-81
2022/01/24 02:26:08;;;;;;;22.33;11.15;;;4.20;79.50;;;;;;5053480;28;20119;-81
2022/01/24 02:31:36;;;;;;;27.75;11.75;;;4.10;79.70;;;;;;5036216;28;20033;-81
2022/01/24 02:34:02;;;;;;;;;;;4.10;79.80;;;;;;5036833;28;20026;-82
2022/01/24 02:36:28;;;;;;;24.92;12.20;;;4.10;79.60;;;;;;5034993;28;19916;-81
2022/01/24 02:39:32;;;;;;;19.67;9.70;;;4.10;79.60;;;;;;5036216;28;20384;-82
2022/01/24 02:50:19;;;;;;;22.38;9.95;;;4.00;79.60;;;;;;5036319;28;20705;-81
2022/01/24 02:52:45;;;;;;;28.88;12.18;;;3.90;79.40;;;;;;5037797;28;20022;-81
2022/01/24 02:55:11;;;;;;;24.55;10.25;;;3.90;79.50;;;;;;5061853;28;20087;-82
2022/01/24 02:57:36;;;;;;;26.10;12.02;;;3.90;79.50;;;;;;5035857;28;20103;-81
2022/01/24 03:00:03;;;;;;;21.92;9.88;;;3.80;79.50;;;;;;5049035;28;20021;-81
2022/01/24 03:02:29;;;;;;;24.17;12.48;;;3.80;79.60;;;;;;5044651;28;20554;-81
2022/01/24 03:04:56;;;;;;;28.95;13.05;;;3.80;80.20;;;;;;5035778;28;20115;-82
2022/01/24 03:07:22;;;;;;;33.95;13.57;;;3.70;80.40;;;;;;5035663;28;20022;-82
2022/01/24 03:09:49;;;;;;;37.30;15.60;;;3.70;80.70;;;;;;5035338;28;20013;-81
2022/01/24 03:12:26;;;;;;;39.25;16.17;;;3.80;80.60;;;;;;5050069;28;20029;-79
2022/01/24 03:14:51;;;;;;;37.60;15.35;;;3.80;80.30;;;;;;5055610;28;20074;-81
2022/01/24 03:17:17;;;;;;;34.30;14.75;;;3.80;80.50;;;;;;5055829;28;20033;-82
2022/01/24 03:19:42;;;;;;;28.65;12.30;;;3.70;80.50;;;;;;5049751;28;20053;-81
2022/01/24 03:22:11;;;;;;;26.70;11.57;;;3.70;80.30;;;;;;5067422;28;20029;-81
2022/01/24 03:24:57;;;;;;;31.65;12.15;;;3.70;80.50;;;;;;5050776;28;20033;-81
2022/01/24 03:27:23;;;;;;;28.60;12.60;;;3.70;80.50;;;;;;5035741;28;20108;-82
2022/01/24 03:29:48;;;;;;;32.42;13.70;;;3.70;80.40;;;;;;5035347;28;20060;-81
2022/01/24 03:32:14;;;;;;;30.90;12.98;;;3.70;80.40;;;;;;5035446;28;20013;-82
2022/01/24 03:34:40;;;;;;;26.92;13.02;;;3.80;80.30;;;;;;5035200;28;20037;-81
2022/01/24 03:37:07;;;;;;;35.60;14.40;;;3.80;80.20;;;;;;5035269;28;20369;-81
2022/01/24 03:39:33;;;;;;;27.90;13.75;;;3.70;80.10;;;;;;5035349;28;20029;-81
2022/01/24 03:41:59;;;;;;;27.95;11.18;;;3.70;79.70;;;;;;5035058;28;20025;-81
2022/01/24 03:44:27;;;;;;;25.98;10.90;;;3.70;80.00;;;;;;5035328;28;20021;-81
2022/01/24 03:52:10;;;;;;;23.10;11.48;;;3.60;79.70;;;;;;5035376;28;20048;-81
2022/01/24 03:54:36;;;;;;;25.77;12.70;;;3.60;79.80;;;;;;5067449;28;20025;-82
2022/01/24 03:57:03;;;;;;;31.40;13.07;;;3.40;80.60;;;;;;5074792;28;20127;-80
2022/01/24 03:59:32;;;;;;;26.73;12.25;;;3.40;81.20;;;;;;5064079;28;20021;-81
2022/01/24 04:02:01;;;;;;;33.88;13.05;;;3.30;81.40;;;;;;5033742;28;20071;-82
2022/01/24 04:04:32;;;;;;;27.27;12.55;;;3.30;81.50;;;;;;5034926;28;20025;-81
2022/01/24 04:06:58;;;;;;;24.02;11.77;;;3.20;82.00;;;;;;5033869;28;20084;-82
2022/01/24 04:09:23;;;;;;;27.42;12.20;;;3.30;82.30;;;;;;5043981;28;20037;-81
2022/01/24 04:11:53;;;;;;;20.33;11.05;;;3.30;81.90;;;;;;5054854;28;20033;-82
2022/01/24 04:21:59;;;;;;;24.50;12.07;;;3.10;83.30;;;;;;5055016;28;20122;-81
2022/01/24 04:24:26;;;;;;;23.15;10.77;;;3.10;83.50;;;;;;5052050;28;20525;-81
2022/01/24 04:26:52;;;;;;;28.95;11.48;;;3.10;83.30;;;;;;5054746;28;20194;-81
2022/01/24 04:29:17;;;;;;;32.45;13.13;;;3.10;83.30;;;;;;5054635;28;20032;-81
2022/01/24 04:31:44;;;;;;;30.35;12.30;;;3.20;83.20;;;;;;5044381;28;20471;-81
2022/01/24 04:34:10;;;;;;;22.73;11.32;;;3.20;83.10;;;;;;5034520;28;20076;-81
2022/01/24 04:36:36;;;;;;;35.03;13.52;;;3.20;82.80;;;;;;5034444;28;20064;-82
2022/01/24 04:39:03;;;;;;;33.38;12.63;;;3.20;82.80;;;;;;5034778;28;20029;-81
2022/01/24 04:41:34;;;;;;;33.15;13.93;;;3.30;82.80;;;;;;5043799;28;20029;-82
2022/01/24 04:44:10;;;;;;;;;;;3.40;82.30;;;;;;5055098;28;20027;-82
2022/01/24 04:52:18;;;;;;;27.75;12.63;;;3.20;82.80;;;;;;5034571;28;20031;-82
2022/01/24 04:54:45;;;;;;;27.13;12.55;;;3.20;82.90;;;;;;5069456;28;20112;-82
2022/01/24 04:57:16;;;;;;;26.00;11.88;;;3.30;82.60;;;;;;5070520;28;20037;-81
2022/01/24 04:59:47;;;;;;;26.08;11.77;;;3.30;82.50;;;;;;5044707;28;20029;-82
2022/01/24 05:02:13;;;;;;;28.58;12.75;;;3.40;82.30;;;;;;5054527;28;20021;-82
2022/01/24 05:04:39;;;;;;;30.73;12.93;;;3.30;82.50;;;;;;5053425;28;20060;-82
2022/01/24 05:07:25;;;;;;;23.25;11.23;;;3.30;82.20;;;;;;5056583;28;20024;-81
2022/01/24 05:10:05;;;;;;;19.58;11.50;;;3.30;82.20;;;;;;5057387;28;20045;-82
2022/01/24 05:25:50;;;;;;;30.40;13.07;;;3.10;82.70;;;;;;5053360;28;20108;-81
2022/01/24 05:28:16;;;;;;;23.05;12.18;;;3.10;82.80;;;;;;5051297;28;20036;-82
2022/01/24 05:30:42;;;;;;;29.77;12.18;;;3.10;82.90;;;;;;5037583;28;20022;-82
2022/01/24 05:33:08;;;;;;;26.13;13.48;;;3.10;82.70;;;;;;5037577;28;20101;-81
2022/01/24 05:35:51;;;;;;;29.02;12.30;;;3.00;82.60;;;;;;5037121;28;20041;-81
2022/01/24 05:38:17;;;;;;;27.58;11.45;;;3.00;82.50;;;;;;5037500;28;20021;-82
2022/01/24 05:40:44;;;;;;;28.70;12.82;;;3.00;82.80;;;;;;5037471;28;20061;-82
2022/01/24 05:43:10;;;;;;;33.13;14.10;;;3.00;82.70;;;;;;5037255;28;20041;-81
2022/01/24 05:45:36;;;;;;;30.50;12.75;;;3.10;82.70;;;;;;5036608;28;20434;-81
2022/01/24 05:48:02;;;;;;;28.63;13.35;;;3.10;82.60;;;;;;5037376;28;20483;-81
2022/01/24 05:50:27;;;;;;;34.92;13.07;;;3.20;82.20;;;;;;5045271;28;20059;-82
2022/01/24 05:52:56;;;;;;;25.65;14.05;;;3.10;82.20;;;;;;5055879;28;20511;-79
2022/01/24 05:55:21;;;;;;;25.50;12.70;;;3.10;82.20;;;;;;5076738;28;20029;-87
2022/01/24 05:57:47;;;;;;;32.30;14.45;;;3.10;82.00;;;;;;5055712;28;20434;-84
2022/01/24 06:00:14;;;;;;;31.63;12.90;;;3.20;82.20;;;;;;5054646;28;20155;-80
2022/01/24 06:02:40;;;;;;;35.92;13.57;;;3.00;82.50;;;;;;5037072;28;20735;-80
2022/01/24 06:05:07;;;;;;;32.45;15.38;;;3.00;82.20;;;;;;5036838;28;20031;-79
2022/01/24 06:07:33;;;;;;;36.55;13.88;;;3.00;82.50;;;;;;5036665;28;20029;-78
2022/01/24 06:10:04;;;;;;;32.60;14.23;;;2.90;82.60;;;;;;5056842;28;20491;-79
2022/01/24 06:12:30;;;;;;;30.13;13.60;;;2.80;83.20;;;;;;5055582;28;20029;-78
2022/01/24 06:14:55;;;;;;;33.80;14.38;;;2.80;83.40;;;;;;5054113;28;20028;-82
2022/01/24 06:17:21;;;;;;;32.53;14.55;;;2.90;83.10;;;;;;5041781;28;20080;-82
2022/01/24 06:19:47;;;;;;;122.55;52.75;;;3.00;82.80;;;;;;5036929;28;20029;-79
2022/01/24 06:22:12;;;;;;;57.15;32.38;;;3.00;82.30;;;;;;5050183;28;20025;-83
2022/01/24 06:24:38;;;;;;;41.58;23.35;;;3.00;82.40;;;;;;5055241;28;20406;-84
2022/01/24 06:27:09;;;;;;;38.65;18.77;;;3.00;82.20;;;;;;5053724;28;20071;-80
2022/01/24 06:29:35;;;;;;;40.40;17.70;;;3.00;82.30;;;;;;5045959;28;20041;-79
2022/01/24 06:32:01;;;;;;;35.20;15.90;;;3.00;82.30;;;;;;5034848;28;20026;-80
2022/01/24 06:34:26;;;;;;;33.85;15.25;;;3.00;82.00;;;;;;5037361;28;20033;-80
2022/01/24 06:36:52;;;;;;;38.58;17.00;;;2.90;82.00;;;;;;5035399;28;20511;-85
2022/01/24 06:39:18;;;;;;;33.35;15.48;;;2.90;82.20;;;;;;5034986;28;20032;-81
2022/01/24 06:42:03;;;;;;;45.28;19.13;;;2.90;82.00;;;;;;5035633;28;20021;-82
2022/01/24 06:44:29;;;;;;;43.70;21.40;;;2.90;82.40;;;;;;5040005;28;20017;-82
2022/01/24 06:46:55;;;;;;;32.78;17.05;;;2.90;82.20;;;;;;5049058;28;20108;-80
2022/01/24 06:49:20;;;;;;;35.00;16.48;;;2.90;82.40;;;;;;5035012;28;20034;-80
2022/01/24 06:51:46;;;;;;;38.20;16.13;;;2.90;82.00;;;;;;5047253;28;20029;-81
2022/01/24 06:54:12;;;;;;;32.92;16.20;;;2.90;82.00;;;;;;5054908;28;20051;-80
2022/01/24 06:56:37;;;;;;;39.90;16.17;;;2.80;81.90;;;;;;5051299;28;20074;-83
2022/01/24 06:59:03;;;;;;;34.28;16.08;;;2.80;81.80;;;;;;5054385;28;20033;-81
2022/01/24 07:01:28;;;;;;;34.38;14.63;;;2.80;81.70;;;;;;5039398;28;20040;-82
2022/01/24 07:03:54;;;;;;;33.17;15.75;;;2.80;81.70;;;;;;5053436;28;20779;-77
2022/01/24 07:06:20;;;;;;;31.80;14.23;;;2.80;81.70;;;;;;5053191;28;20068;-82
2022/01/24 07:08:45;;;;;;;37.63;15.25;;;2.90;81.50;;;;;;5053878;28;20645;-81
2022/01/24 07:11:11;;;;;;;30.70;14.50;;;2.80;81.30;;;;;;5054640;28;20086;-86
2022/01/24 07:13:37;;;;;;;37.47;15.68;;;2.80;81.30;;;;;;5055662;28;20556;-84
2022/01/24 07:16:05;;;;;;;32.47;15.02;;;2.70;80.90;;;;;;5052865;28;20104;-84
2022/01/24 07:20:59;;;;;;;36.35;16.23;;;2.70;81.30;;;;;;5053030;28;20052;-84
2022/01/24 07:23:25;;;;;;;116.18;40.60;;;2.70;81.20;;;;;;5054756;28;20074;-83
2022/01/24 07:25:51;;;;;;;85.85;31.40;;;2.70;81.40;;;;;;5056342;28;20033;-84
2022/01/24 07:28:17;;;;;;;73.75;28.58;;;2.60;81.30;;;;;;5053452;28;20025;-82
2022/01/24 07:30:44;;;;;;;61.30;26.95;;;2.60;81.40;;;;;;5055409;28;20025;-83
2022/01/24 07:33:10;;;;;;;50.67;24.88;;;2.60;81.30;;;;;;5054762;28;20024;-83
2022/01/24 07:35:38;;;;;;;55.15;22.80;;;2.50;81.00;;;;;;5054222;28;20025;-82
2022/01/24 07:38:05;;;;;;;45.40;22.60;;;2.50;81.20;;;;;;5051313;28;20032;-83
2022/01/24 07:40:31;;;;;;;39.70;18.00;;;2.50;81.30;;;;;;5051710;28;20071;-82
2022/01/24 07:43:09;;;;;;;35.05;16.08;;;2.50;81.10;;;;;;5054696;28;20025;-83
2022/01/24 07:45:36;;;;;;;38.65;17.17;;;2.50;81.20;;;;;;5039530;28;20443;-83
2022/01/24 07:48:03;;;;;;;39.03;17.38;;;2.50;81.10;;;;;;5034513;28;20057;-83
2022/01/24 07:50:29;;;;;;;36.40;16.40;;;2.50;81.20;;;;;;5032755;28;20407;-84
2022/01/24 07:52:55;;;;;;;32.20;14.80;;;2.40;81.00;;;;;;5035904;28;20028;-83
2022/01/24 07:55:22;;;;;;;38.60;16.73;;;2.40;81.40;;;;;;5033621;28;20036;-84
2022/01/24 07:57:48;;;;;;;41.00;17.20;;;2.40;81.40;;;;;;5033385;28;20053;-80
2022/01/24 08:00:14;;;;;;;44.85;17.92;;;2.50;81.50;;;;;;5034554;28;20458;-83
2022/01/24 08:02:40;;;;;;;43.75;18.95;;;2.50;81.50;;;;;;5033460;28;20033;-83
2022/01/24 08:05:07;;;;;;;35.67;17.20;;;2.50;81.20;;;;;;5029268;28;20522;-83
2022/01/24 08:07:33;;;;;;;38.45;18.73;;;2.50;81.10;;;;;;5014567;28;20503;-83
2022/01/24 08:09:59;;;;;;;42.83;19.15;;;2.60;81.10;;;;;;5015290;28;20026;-82
2022/01/24 08:12:25;;;;;;;42.92;20.33;;;2.70;81.00;;;;;;5030330;28;20032;-83
2022/01/24 08:14:51;;;;;;;40.08;18.25;;;2.70;81.00;;;;;;5024717;28;20516;-83
2022/01/24 08:17:18;;;;;;;39.35;19.58;;;2.70;80.60;;;;;;5021718;28;20057;-84
2022/01/24 08:19:44;;;;;;;30.77;16.88;;;2.70;81.00;;;;;;5034346;28;20014;-83
2022/01/24 08:22:12;;;;;;;46.63;20.08;;;2.70;80.90;;;;;;5032565;28;20496;-83
2022/01/24 08:24:38;;;;;;;40.30;18.58;;;2.80;81.00;;;;;;5034452;28;20095;-83
2022/01/24 08:27:03;;;;;;;44.88;23.58;;;2.80;80.90;;;;;;5034418;28;20029;-83
2022/01/24 08:29:29;;;;;;;42.92;19.88;;;2.90;81.30;;;;;;5032286;28;20021;-83
2022/01/24 08:31:55;;;;;;;41.83;19.85;;;2.90;81.50;;;;;;5034021;28;20037;-82
2022/01/24 08:34:20;;;;;;;41.53;17.13;;;2.90;81.40;;;;;;5032780;28;20033;-82
2022/01/24 08:36:47;;;;;;;38.03;17.42;;;3.00;81.30;;;;;;5033007;28;20029;-83
2022/01/24 08:39:13;;;;;;;38.95;18.10;;;3.10;81.30;;;;;;5032803;28;20017;-83
2022/01/24 08:42:01;;;;;;;43.55;17.23;;;3.20;80.90;;;;;;5037720;28;20021;-83
2022/01/24 08:45:41;;;;;;;39.55;15.77;;;3.20;80.90;;;;;;5036992;28;20035;-83
2022/01/24 08:47:16;;;;;;;29.40;15.00;;;3.20;81.00;;;;;;5037799;28;20043;-83
2022/01/24 08:49:42;;;;;;;43.05;19.35;;;3.30;81.00;;;;;;5035470;28;20021;-83
2022/01/24 08:52:08;;;;;;;38.10;18.02;;;3.40;81.10;;;;;;5036228;28;20026;-83
2022/01/24 08:54:33;;;;;;;44.13;16.50;;;3.50;80.90;;;;;;5037899;28;20080;-84
2022/01/24 08:57:02;;;;;;;37.83;16.63;;;3.40;81.20;;;;;;5037726;28;20037;-83
2022/01/24 08:59:27;;;;;;;36.83;16.92;;;3.50;81.30;;;;;;5035562;28;20025;-84
2022/01/24 09:01:53;;;;;;;36.72;16.70;;;3.50;81.30;;;;;;5037406;28;20040;-84
2022/01/24 09:04:19;;;;;;;35.35;16.33;;;3.60;80.90;;;;;;5037602;28;20056;-83
2022/01/24 09:06:45;;;;;;;39.60;18.20;;;3.70;81.00;;;;;;5036233;28;20407;-84
2022/01/24 09:09:13;;;;;;;35.22;16.67;;;3.70;81.00;;;;;;5033031;28;20036;-83
2022/01/24 09:11:38;;;;;;;32.30;13.75;;;3.80;80.80;;;;;;5035370;28;20022;-83
2022/01/24 09:14:06;;;;;;;39.50;16.05;;;3.80;80.80;;;;;;5036500;28;20029;-83
2022/01/24 09:16:32;;;;;;;34.35;15.00;;;3.70;81.00;;;;;;5030164;28;20069;-83
2022/01/24 09:18:58;;;;;;;38.60;14.68;;;3.80;80.80;;;;;;5036161;28;20033;-82
2022/01/24 09:21:24;;;;;;;29.52;15.88;;;3.90;81.20;;;;;;5037808;28;20045;-82
2022/01/24 09:23:49;;;;;;;29.15;14.50;;;4.00;80.70;;;;;;5036148;28;20198;-83
2022/01/24 09:26:15;;;;;;;34.63;15.27;;;4.00;80.50;;;;;;5032074;28;20034;-85
2022/01/24 09:28:41;;;;;;;29.50;13.88;;;4.10;80.40;;;;;;5048924;28;20026;-84
2022/01/24 09:31:07;;;;;;;29.55;14.55;;;4.30;80.10;;;;;;5031859;28;20030;-83
2022/01/24 09:33:34;;;;;;;31.77;16.85;;;4.60;79.10;;;;;;5017705;28;20022;-83
2022/01/24 09:36:00;;;;;;;27.75;17.10;;;5.20;77.60;;;;;;5017897;28;20022;-84
2022/01/24 09:38:32;;;;;;;29.45;16.52;;;6.20;75.10;;;;;;5016047;28;20076;-85
2022/01/24 09:41:04;;;;;;;31.00;18.13;;;7.10;72.90;;;;;;5018085;28;20053;-88
2022/01/24 09:43:31;;;;;;;32.80;17.38;;;7.90;69.90;;;;;;5032974;28;20128;-86
2022/01/24 09:45:57;;;;;;;28.38;18.05;;;8.60;66.30;;;;;;5032963;28;20030;-90
2022/01/24 09:48:23;;;;;;;29.98;19.83;;;8.80;65.10;;;;;;5034317;28;20052;-87
2022/01/24 09:50:52;;;;;;;30.00;19.70;;;8.70;64.10;;;;;;5033591;28;20029;-87
2022/01/24 09:53:21;;;;;;;31.55;19.67;;;8.70;64.40;;;;;;5035923;28;20026;-85
2022/01/24 09:55:47;;;;;;;30.27;19.35;;;8.60;65.10;;;;;;5041783;28;20029;-85
2022/01/24 09:58:14;;;;;;;25.85;19.10;;;8.50;64.90;;;;;;5048345;28;20053;-95
2022/01/24 10:00:39;;;;;;;29.10;19.38;;;8.50;65.60;;;;;;5041114;28;20033;-94
2022/01/24 10:03:08;;;;;;;31.83;19.48;;;8.40;65.70;;;;;;5032629;28;20388;-91
2022/01/24 10:05:37;;;;;;;29.30;17.83;;;8.20;66.10;;;;;;5050901;28;20021;-95
2022/01/24 10:08:12;;;;;;;29.60;15.73;;;7.90;66.50;;;;;;5051244;28;20064;-94
2022/01/24 10:10:45;;;;;;;27.52;14.52;;;7.50;68.40;;;;;;5043809;28;20029;-93
2022/01/24 10:19:03;;;;;;;32.00;14.73;;;6.50;72.30;;;;;;5027479;28;20025;-95
2022/01/24 10:21:35;;;;;;;25.77;13.65;;;6.20;73.30;;;;;;5025196;28;20029;-92
2022/01/24 10:24:01;;;;;;;25.58;13.05;;;6.00;73.90;;;;;;5023226;28;20032;-94
2022/01/24 10:26:29;;;;;;;26.67;12.18;;;6.00;74.40;;;;;;5040556;28;20085;-94
2022/01/24 10:28:55;;;;;;;27.27;12.82;;;5.90;74.60;;;;;;5051241;28;20038;-94
2022/01/24 10:31:28;;;;;;;27.73;13.98;;;5.80;74.80;;;;;;5048347;28;20021;-93
2022/01/24 10:34:03;;;;;;;27.15;12.57;;;5.80;75.10;;;;;;5048984;28;20025;-93
2022/01/24 10:36:42;;;;;;;25.05;11.02;;;5.70;75.00;;;;;;5046200;28;20024;-94
2022/01/24 10:39:29;;;;;;;19.58;10.20;;;5.80;75.00;;;;;;5047772;28;20014;-94
2022/01/24 10:45:10;;;;;;;25.40;11.77;;;5.70;75.50;;;;;;5026949;28;20534;-94
2022/01/24 10:47:44;;;;;;;21.17;10.15;;;5.70;75.70;;;;;;5027267;28;20080;-94
2022/01/24 10:50:18;;;;;;;26.02;12.38;;;5.80;75.40;;;;;;5042377;28;20017;-92
2022/01/24 10:52:44;;;;;;;27.83;13.77;;;5.90;75.80;;;;;;5040265;28;20079;-93
2022/01/24 10:55:28;;;;;;;28.20;13.52;;;6.00;75.50;;;;;;5044740;28;20049;-93
2022/01/24 10:58:05;;;;;;;28.77;13.70;;;6.00;75.20;;;;;;5033949;28;20061;-91
2022/01/24 11:00:31;;;;;;;29.75;11.98;;;6.20;75.10;;;;;;5024433;28;20038;-92
2022/01/24 11:03:06;;;;;;;30.17;12.60;;;6.20;74.70;;;;;;5026677;28;20029;-90
2022/01/24 11:05:39;;;;;;;23.55;13.05;;;6.20;74.90;;;;;;5038867;28;20498;-92
2022/01/24 11:08:09;;;;;;;26.13;12.55;;;6.30;74.50;;;;;;5038467;28;20116;-92
2022/01/24 11:10:44;;;;;;;25.73;11.70;;;6.30;74.90;;;;;;5037904;28;20509;-91
2022/01/24 11:13:11;;;;;;;26.27;12.05;;;6.30;74.50;;;;;;5036463;28;20022;-93
2022/01/24 11:15:39;;;;;;;25.10;12.70;;;6.20;74.60;;;;;;5021112;28;20036;-90
2022/01/24 11:18:06;;;;;;;26.35;12.18;;;6.30;75.20;;;;;;5019637;28;20117;-94
2022/01/24 11:20:34;;;;;;;25.27;12.90;;;6.50;75.10;;;;;;5024892;28;20159;-93
2022/01/24 11:23:05;;;;;;;20.63;10.75;;;6.40;74.50;;;;;;5037609;28;20033;-92
2022/01/24 11:25:38;;;;;;;23.73;11.60;;;6.50;74.60;;;;;;5037454;28;20112;-94
2022/01/24 11:28:05;;;;;;;20.63;10.43;;;6.50;74.60;;;;;;5038533;28;20040;-94
2022/01/24 11:30:35;;;;;;;25.73;11.13;;;6.50;74.50;;;;;;5037379;28;20025;-94
2022/01/24 11:33:16;;;;;;;;;;;6.60;74.10;;;;;;5033981;28;20030;-91
2022/01/24 11:35:52;;;;;;;18.33;8.55;;;6.70;74.00;;;;;;5017444;28;19912;-93
2022/01/24 11:38:33;;;;;;;24.35;11.63;;;6.70;74.00;;;;;;5035379;28;20021;-91
2022/01/24 11:41:06;;;;;;;18.05;10.27;;;6.70;74.80;;;;;;5038687;28;20402;-91
2022/01/24 11:43:45;;;;;;;30.00;14.52;;;6.80;74.00;;;;;;5022366;28;20026;-92
2022/01/24 11:46:31;;;;;;;26.10;13.43;;;6.80;74.50;;;;;;5015873;28;20061;-90
2022/01/24 11:49:07;;;;;;;16.83;8.57;;;7.00;74.10;;;;;;5016694;28;20030;-83
2022/01/24 11:51:34;;;;;;;25.33;12.00;;;7.10;73.70;;;;;;5015229;28;20052;-85
2022/01/24 11:54:01;;;;;;;24.52;12.02;;;7.20;74.00;;;;;;5026780;28;20109;-84
2022/01/24 11:56:32;;;;;;;23.83;11.82;;;7.20;73.40;;;;;;5043902;28;20040;-78
2022/01/24 11:59:22;;;;;;;18.98;8.93;;;7.20;73.00;;;;;;5040761;28;20632;-83
2022/01/24 12:01:54;;;;;;;26.40;13.75;;;7.10;73.00;;;;;;5032323;28;20026;-86
2022/01/24 12:05:09;;;;;;;23.48;13.32;;;7.20;73.00;;;;;;5033439;28;20507;-77
2022/01/24 12:07:41;;;;;;;25.30;12.85;;;7.10;73.00;;;;;;5015929;28;20037;-84
2022/01/24 12:10:36;;;;;;;23.85;11.98;;;7.20;73.20;;;;;;5014305;28;20042;-82
2022/01/24 12:13:03;;;;;;;20.42;10.38;;;7.30;73.70;;;;;;5035025;28;20101;-84
2022/01/24 12:15:38;;;;;;;25.17;13.32;;;7.30;72.40;;;;;;5047260;28;20119;-81
2022/01/24 12:18:09;;;;;;;26.13;13.15;;;7.40;72.70;;;;;;5058539;28;20021;-81
2022/01/24 12:20:34;;;;;;;21.60;11.60;;;7.60;72.80;;;;;;5049403;28;20072;-83
2022/01/24 12:23:21;;;;;;;23.20;12.05;;;7.70;72.00;;;;;;5039087;28;20025;-83
2022/01/24 12:25:49;;;;;;;27.77;14.10;;;7.80;72.00;;;;;;5037874;28;20082;-86
2022/01/24 12:28:17;;;;;;;25.38;14.85;;;7.80;71.60;;;;;;5032086;28;20116;-78
2022/01/24 12:31:05;;;;;;;20.85;10.50;;;8.00;72.30;;;;;;5018809;28;20026;-79
2022/01/24 12:34:00;;;;;;;32.88;15.52;;;8.00;70.80;;;;;;5018909;28;20444;-79
2022/01/24 12:36:48;;;;;;;25.00;12.25;;;8.00;71.20;;;;;;5034163;28;20385;-86
2022/01/24 12:39:20;;;;;;;21.85;12.48;;;8.00;70.60;;;;;;5026656;28;20029;-85
2022/01/24 12:41:53;;;;;;;27.48;12.48;;;8.10;71.20;;;;;;5034282;28;20118;-86
2022/01/24 12:47:13;;;;;;;25.20;12.73;;;8.20;70.90;;;;;;5032039;28;20036;-79
2022/01/24 12:49:40;;;;;;;25.58;13.27;;;8.30;70.70;;;;;;5035441;28;20036;-80
2022/01/24 12:52:12;;;;;;;32.95;16.13;;;8.30;70.30;;;;;;5036918;28;20387;-80
2022/01/24 12:54:41;;;;;;;26.95;12.52;;;8.30;70.30;;;;;;5034660;28;20017;-80
2022/01/24 12:57:12;;;;;;;20.63;10.63;;;8.40;70.50;;;;;;5033915;28;20041;-80
2022/01/24 12:59:38;;;;;;;33.80;13.93;;;8.30;69.80;;;;;;5034022;28;20037;-80
2022/01/24 13:02:06;;;;;;;30.48;14.82;;;8.30;69.40;;;;;;5037772;28;20466;-80
2022/01/24 13:04:40;;;;;;;23.77;12.63;;;8.30;69.50;;;;;;5035191;28;20091;-80
2022/01/24 13:07:08;;;;;;;17.98;10.48;;;8.30;68.90;;;;;;5034848;28;20460;-80
2022/01/24 13:09:36;;;;;;;18.05;10.07;;;8.40;68.90;;;;;;5034674;28;20074;-79
2022/01/24 13:12:05;;;;;;;20.48;11.02;;;8.50;68.80;;;;;;5032936;28;20033;-80
2022/01/24 13:14:42;;;;;;;21.35;9.50;;;8.50;69.00;;;;;;5032700;28;20128;-80
2022/01/24 13:25:30;;;;;;;16.33;9.32;;;8.60;68.00;;;;;;5033854;28;20109;-79
2022/01/24 13:27:57;;;;;;;16.45;8.73;;;8.60;67.60;;;;;;5036775;28;20033;-79
2022/01/24 13:30:40;;;;;;;20.05;9.50;;;8.70;67.60;;;;;;5032283;28;20065;-80
2022/01/24 13:33:09;;;;;;;19.30;9.45;;;8.80;68.10;;;;;;5017702;28;20053;-80
2022/01/24 13:35:37;;;;;;;27.40;13.50;;;8.80;67.80;;;;;;5015332;28;20043;-81
2022/01/24 13:38:14;;;;;;;20.00;12.60;;;8.80;67.80;;;;;;5015916;28;20029;-72
2022/01/24 13:43:29;;;;;;;16.80;10.63;;;8.70;67.60;;;;;;5016655;28;20097;-71
2022/01/24 13:45:54;;;;;;;20.65;11.35;;;8.80;68.00;;;;;;5016124;28;20026;-72
2022/01/24 13:48:22;;;;;;;24.95;11.00;;;8.80;67.00;;;;;;5016854;28;20028;-72
2022/01/24 13:50:51;;;;;;;20.65;10.02;;;8.80;67.00;;;;;;5017172;28;20060;-73
2022/01/24 13:53:51;;;;;;;17.25;10.50;;;8.80;66.90;;;;;;5027670;28;20575;-72
2022/01/24 13:56:18;;;;;;;;;;;9.00;67.40;;;;;;5024058;28;20025;-73
2022/01/24 13:59:01;;;;;;;19.13;9.60;;;8.90;66.60;;;;;;5056632;28;19913;-72
2022/01/24 14:01:27;;;;;;;20.17;10.82;;;9.00;66.90;;;;;;5028199;28;20033;-72
2022/01/24 14:04:00;;;;;;;23.17;11.38;;;8.90;67.00;;;;;;5016962;28;20457;-72
2022/01/24 14:06:30;;;;;;;19.25;10.80;;;8.90;66.80;;;;;;5017095;28;20527;-72
2022/01/24 14:09:04;;;;;;;;;;;8.90;66.90;;;;;;5030933;28;20057;-72
2022/01/24 14:11:29;;;;;;;24.25;11.60;;;8.90;67.10;;;;;;5024714;28;20017;-72
2022/01/24 14:14:03;;;;;;;24.60;14.38;;;9.00;67.30;;;;;;5036760;28;20148;-73
2022/01/24 14:17:22;;;;;;;20.75;12.13;;;9.10;67.20;;;;;;5034454;28;20100;-78
2022/01/24 14:19:34;;;;;;;22.70;13.52;;;9.20;67.50;;;;;;5019117;28;20034;-79
2022/01/24 14:22:10;;;;;;;;;;;9.10;66.80;;;;;;5032310;28;20064;-80
2022/01/24 14:24:49;;;;;;;29.23;13.50;;;9.10;66.60;;;;;;5032236;28;20278;-79
2022/01/24 14:27:42;;;;;;;21.05;10.73;;;9.00;66.50;;;;;;5031430;28;20026;-80
2022/01/24 14:30:19;;;;;;;21.48;11.90;;;9.00;66.80;;;;;;5030705;28;20044;-79
2022/01/24 14:33:18;;;;;;;19.23;10.85;;;9.10;67.00;;;;;;5016847;28;20021;-81
2022/01/24 14:36:09;;;;;;;19.00;10.63;;;9.10;66.40;;;;;;5015209;28;20171;-80
2022/01/24 14:39:03;;;;;;;18.33;9.73;;;9.00;65.90;;;;;;5015912;28;20026;-79
2022/01/24 14:41:45;;;;;;;22.17;10.95;;;9.00;66.40;;;;;;5015715;28;20082;-78
2022/01/24 14:46:58;;;;;;;22.73;11.65;;;8.90;66.10;;;;;;5016469;28;20530;-81
2022/01/24 14:49:31;;;;;;;20.10;11.35;;;8.90;66.90;;;;;;5016363;28;20380;-77
2022/01/24 14:52:00;;;;;;;22.20;10.65;;;9.00;66.90;;;;;;5016765;28;20030;-78
2022/01/24 14:54:29;;;;;;;19.65;10.80;;;9.00;67.20;;;;;;5044496;28;20021;-78
2022/01/24 14:57:01;;;;;;;20.10;11.80;;;9.00;66.80;;;;;;5031880;28;20780;-77
2022/01/24 14:59:28;;;;;;;22.65;11.95;;;9.00;66.60;;;;;;5016094;28;20022;-78
2022/01/24 15:01:55;;;;;;;23.15;10.43;;;9.00;66.80;;;;;;5031205;28;20037;-78
2022/01/24 15:04:21;;;;;;;23.13;12.30;;;9.00;66.50;;;;;;5015831;28;20026;-78